Time;durP1;ratioP1;P1;durP2;ratioP2;P2;SDS_P1;SDS_P2;PMS_P1;PMS_P2;Temp;Humidity;BMP_temperature;BMP_pressure;BME280_temperature;BME280_humidity;BME280_pressure;Samples;Min_cycle;Max_cycle;Signal;HPM_P1;HPM_P2
2021/04/24 00:01:20;;;;;;;26.80;6.55;;;5.00;99.90;;;;;;4974088;28;20472;-83
2021/04/24 00:03:46;;;;;;;26.65;8.00;;;4.90;99.90;;;;;;4974749;28;20042;-83
2021/04/24 00:06:11;;;;;;;30.40;7.22;;;5.00;99.90;;;;;;4975218;28;20023;-83
2021/04/24 00:08:37;;;;;;;23.55;7.60;;;4.90;99.90;;;;;;4990106;28;20623;-82
2021/04/24 00:11:03;;;;;;;30.88;7.30;;;4.80;99.90;;;;;;4975108;28;20018;-84
2021/04/24 00:13:29;;;;;;;28.70;6.22;;;4.90;99.90;;;;;;4980444;28;20406;-84
2021/04/24 00:15:55;;;;;;;21.52;6.50;;;4.90;99.90;;;;;;4982976;28;20034;-82
2021/04/24 00:18:21;;;;;;;31.88;6.32;;;4.90;99.90;;;;;;4975020;28;20105;-83
2021/04/24 00:20:48;;;;;;;24.85;6.38;;;4.90;99.90;;;;;;4975149;28;20038;-82
2021/04/24 00:23:15;;;;;;;23.10;6.55;;;4.90;99.90;;;;;;4975068;28;20150;-83
2021/04/24 00:25:40;;;;;;;34.78;7.90;;;5.00;99.90;;;;;;4992446;28;20030;-84
2021/04/24 00:28:08;;;;;;;34.72;7.32;;;4.90;99.90;;;;;;4993737;28;20042;-83
2021/04/24 00:30:34;;;;;;;32.88;6.60;;;4.90;99.90;;;;;;4994488;28;20394;-83
2021/04/24 00:33:00;;;;;;;37.97;7.82;;;4.90;99.90;;;;;;4992913;28;20113;-83
2021/04/24 00:35:25;;;;;;;34.65;7.32;;;4.80;99.90;;;;;;4988816;28;20051;-83
2021/04/24 00:37:52;;;;;;;19.48;7.03;;;4.80;99.90;;;;;;4989371;28;20125;-83
2021/04/24 00:40:19;;;;;;;30.05;7.82;;;4.80;99.90;;;;;;4974744;28;20023;-83
2021/04/24 00:42:46;;;;;;;30.55;8.07;;;4.80;99.90;;;;;;4974795;28;20043;-84
2021/04/24 00:45:14;;;;;;;37.28;7.43;;;4.80;99.90;;;;;;4974152;28;20037;-82
2021/04/24 00:47:40;;;;;;;31.02;8.63;;;4.80;99.90;;;;;;4973021;28;20057;-83
2021/04/24 00:50:09;;;;;;;28.50;6.70;;;4.80;99.90;;;;;;4973240;28;20027;-83
2021/04/24 00:52:35;;;;;;;30.15;6.70;;;4.80;99.90;;;;;;4974378;28;20034;-83
2021/04/24 00:55:01;;;;;;;30.30;6.20;;;4.70;99.90;;;;;;4983929;28;20039;-83
2021/04/24 00:57:28;;;;;;;37.08;7.72;;;4.50;99.90;;;;;;4974282;28;20033;-83
2021/04/24 00:59:55;;;;;;;28.80;6.50;;;4.50;99.90;;;;;;4973855;28;20039;-83
2021/04/24 01:02:20;;;;;;;24.40;7.25;;;4.50;99.90;;;;;;4974128;28;20030;-83
2021/04/24 01:04:46;;;;;;;31.27;6.68;;;4.60;99.90;;;;;;4983019;28;20384;-84
2021/04/24 01:07:12;;;;;;;29.80;6.68;;;4.60;99.90;;;;;;5008317;28;20061;-83
2021/04/24 01:09:37;;;;;;;42.95;7.93;;;4.70;99.90;;;;;;5008569;28;20045;-83
2021/04/24 01:12:04;;;;;;;38.05;8.35;;;4.60;99.90;;;;;;4993327;28;20107;-83
2021/04/24 01:14:30;;;;;;;29.67;7.82;;;4.50;99.90;;;;;;4990942;28;20049;-83
2021/04/24 01:16:56;;;;;;;33.67;6.93;;;4.50;99.90;;;;;;4991520;28;20035;-82
2021/04/24 01:19:26;;;;;;;28.48;6.50;;;4.50;99.90;;;;;;5008596;28;20426;-83
2021/04/24 01:21:52;;;;;;;30.25;6.35;;;4.40;99.90;;;;;;4993326;28;20105;-83
2021/04/24 01:24:19;;;;;;;35.15;6.13;;;4.40;99.90;;;;;;4991740;28;20034;-83
2021/04/24 01:26:45;;;;;;;27.42;5.95;;;4.40;99.90;;;;;;4993044;28;20026;-83
2021/04/24 01:29:11;;;;;;;34.53;6.10;;;4.50;99.90;;;;;;4992288;28;20423;-83
2021/04/24 01:31:37;;;;;;;29.17;6.47;;;4.40;99.90;;;;;;4992233;28;20084;-83
2021/04/24 01:34:06;;;;;;;36.45;6.68;;;4.40;99.90;;;;;;4990613;28;20030;-83
2021/04/24 01:36:31;;;;;;;31.90;5.50;;;4.40;99.90;;;;;;4991528;28;20033;-83
2021/04/24 01:38:57;;;;;;;30.85;6.65;;;4.30;99.90;;;;;;4992927;28;20394;-83
2021/04/24 01:41:23;;;;;;;34.58;6.85;;;4.30;99.90;;;;;;4991532;28;20388;-82
2021/04/24 01:43:53;;;;;;;37.15;6.85;;;4.30;99.90;;;;;;4987266;28;20093;-83
2021/04/24 01:46:18;;;;;;;41.92;8.20;;;4.30;99.90;;;;;;4971936;28;20033;-83
2021/04/24 01:48:47;;;;;;;36.28;5.45;;;4.30;99.90;;;;;;4988225;28;20034;-83
2021/04/24 01:51:12;;;;;;;32.20;5.35;;;4.20;99.90;;;;;;4971858;28;20027;-83
2021/04/24 01:53:40;;;;;;;39.15;7.50;;;4.20;99.90;;;;;;4989448;28;20030;-83
2021/04/24 01:56:06;;;;;;;52.83;5.82;;;4.10;99.90;;;;;;4992424;28;20081;-83
2021/04/24 01:58:32;;;;;;;50.15;7.47;;;4.20;99.90;;;;;;4990651;28;20026;-83
2021/04/24 02:01:01;;;;;;;36.25;5.80;;;4.20;99.90;;;;;;4992638;28;20423;-83
2021/04/24 02:03:28;;;;;;;50.85;6.45;;;4.10;99.90;;;;;;4991181;28;20070;-83
2021/04/24 02:05:54;;;;;;;47.78;6.55;;;4.10;99.90;;;;;;4991368;28;20023;-82
2021/04/24 02:08:45;;;;;;;38.88;5.43;;;4.00;99.90;;;;;;4991430;28;20053;-83
2021/04/24 02:11:11;;;;;;;39.08;6.40;;;3.90;99.90;;;;;;4972518;28;20129;-83
2021/04/24 02:13:40;;;;;;;45.33;6.90;;;3.80;99.90;;;;;;4993879;28;20030;-83
2021/04/24 02:16:07;;;;;;;36.05;6.32;;;3.80;99.90;;;;;;4992103;28;20489;-83
2021/04/24 02:18:33;;;;;;;29.77;5.10;;;3.70;99.90;;;;;;4992361;28;20027;-83
2021/04/24 02:20:58;;;;;;;34.13;6.15;;;3.60;99.90;;;;;;4974206;28;20044;-83
2021/04/24 02:23:24;;;;;;;34.83;5.32;;;3.50;99.90;;;;;;5007132;28;20028;-83
2021/04/24 02:25:51;;;;;;;46.28;6.85;;;3.40;99.90;;;;;;4991577;28;20487;-83
2021/04/24 02:28:16;;;;;;;37.80;6.50;;;3.30;99.90;;;;;;4991256;28;20022;-83
2021/04/24 02:30:43;;;;;;;44.88;5.80;;;3.30;99.90;;;;;;4992198;28;20394;-82
2021/04/24 02:33:10;;;;;;;38.88;6.30;;;3.20;99.90;;;;;;4992094;28;20483;-84
2021/04/24 02:35:56;;;;;;;46.45;6.13;;;3.10;99.90;;;;;;4991317;28;20029;-83
2021/04/24 02:38:29;;;;;;;38.08;6.63;;;3.10;99.90;;;;;;4991755;28;20080;-83
2021/04/24 02:40:58;;;;;;;48.50;6.10;;;3.00;99.90;;;;;;4980395;28;20034;-82
2021/04/24 02:43:23;;;;;;;30.17;5.47;;;3.00;99.90;;;;;;4976660;28;20037;-83
2021/04/24 02:45:49;;;;;;;56.00;7.55;;;3.00;99.90;;;;;;4991439;28;20030;-83
2021/04/24 02:48:16;;;;;;;45.63;6.05;;;2.90;99.90;;;;;;4990701;28;20030;-83
2021/04/24 02:50:42;;;;;;;38.47;6.55;;;2.80;99.90;;;;;;4991017;28;20030;-83
2021/04/24 02:53:08;;;;;;;42.97;5.75;;;2.80;99.90;;;;;;4994978;28;20037;-83
2021/04/24 02:55:33;;;;;;;46.60;6.40;;;2.70;99.90;;;;;;4995521;28;20027;-83
2021/04/24 02:57:59;;;;;;;49.75;6.22;;;2.70;99.90;;;;;;4995615;28;20077;-84
2021/04/24 03:00:26;;;;;;;43.85;6.57;;;2.60;99.90;;;;;;4994624;28;20030;-83
2021/04/24 03:03:03;;;;;;;49.00;6.15;;;2.70;99.90;;;;;;4994862;28;20054;-84
2021/04/24 03:05:30;;;;;;;62.83;7.45;;;2.60;99.90;;;;;;4992505;28;20361;-84
2021/04/24 03:07:55;;;;;;;49.65;5.85;;;2.60;99.90;;;;;;4995806;28;20493;-84
2021/04/24 03:10:22;;;;;;;48.00;7.35;;;2.60;99.90;;;;;;4978192;28;20109;-83
2021/04/24 03:12:48;;;;;;;53.13;6.57;;;2.70;99.90;;;;;;4976203;28;20030;-83
2021/04/24 03:15:14;;;;;;;45.17;7.22;;;2.70;99.90;;;;;;4994818;28;20039;-83
2021/04/24 03:17:40;;;;;;;77.00;9.13;;;2.60;99.90;;;;;;4995563;28;20390;-83
2021/04/24 03:20:08;;;;;;;36.30;6.60;;;2.60;99.90;;;;;;4997998;28;20030;-83
2021/04/24 03:22:35;;;;;;;53.72;7.50;;;2.60;99.90;;;;;;4975987;28;20023;-83
2021/04/24 03:25:01;;;;;;;41.28;6.70;;;2.70;99.90;;;;;;4975380;28;20029;-84
2021/04/24 03:27:26;;;;;;;64.55;8.02;;;2.80;99.90;;;;;;4987027;28;20030;-83
2021/04/24 03:29:52;;;;;;;71.25;9.63;;;3.00;99.90;;;;;;4994775;28;20438;-83
2021/04/24 03:32:18;;;;;;;48.22;8.13;;;3.10;99.90;;;;;;4995201;28;20492;-83
2021/04/24 03:34:43;;;;;;;68.95;7.95;;;3.10;99.90;;;;;;4993326;28;20510;-83
2021/04/24 03:37:09;;;;;;;51.47;7.35;;;3.20;99.90;;;;;;4992320;28;20711;-83
2021/04/24 03:39:34;;;;;;;62.90;8.10;;;3.30;99.90;;;;;;4994669;28;20046;-83
2021/04/24 03:42:00;;;;;;;51.13;7.70;;;3.30;99.90;;;;;;4995147;28;20077;-82
2021/04/24 03:44:25;;;;;;;52.63;8.70;;;3.30;99.90;;;;;;4989473;28;20113;-83
2021/04/24 03:46:51;;;;;;;38.17;6.95;;;3.30;99.90;;;;;;4975441;28;20026;-83
2021/04/24 03:49:16;;;;;;;28.25;6.00;;;3.30;99.90;;;;;;4975677;28;20027;-83
2021/04/24 03:51:42;;;;;;;34.30;5.78;;;3.30;99.90;;;;;;4975500;28;20035;-83
2021/04/24 03:54:08;;;;;;;53.70;7.22;;;3.20;99.90;;;;;;4981092;28;20038;-83
2021/04/24 03:56:34;;;;;;;44.13;6.68;;;3.30;99.90;;;;;;4994887;28;20415;-83
2021/04/24 03:59:00;;;;;;;50.97;7.63;;;3.20;99.90;;;;;;5009262;28;20065;-84
2021/04/24 04:01:26;;;;;;;48.38;5.35;;;3.20;99.90;;;;;;4994685;28;20675;-83
2021/04/24 04:03:51;;;;;;;45.95;6.28;;;3.20;99.90;;;;;;5007931;28;20080;-83
2021/04/24 04:06:17;;;;;;;47.10;5.30;;;3.20;99.90;;;;;;4993870;28;20034;-84
2021/04/24 04:08:43;;;;;;;48.95;6.60;;;3.10;99.90;;;;;;5009602;28;20034;-83
2021/04/24 04:11:09;;;;;;;35.10;5.80;;;3.00;99.90;;;;;;4993219;28;20034;-83
2021/04/24 04:13:34;;;;;;;39.22;5.55;;;2.90;99.90;;;;;;5003395;28;20030;-84
2021/04/24 04:16:00;;;;;;;34.75;5.55;;;2.90;99.90;;;;;;4974483;28;20023;-83
2021/04/24 04:18:25;;;;;;;32.63;5.32;;;2.90;99.90;;;;;;4975117;28;20038;-83
2021/04/24 04:20:54;;;;;;;37.33;4.53;;;2.90;99.90;;;;;;4974987;28;20030;-83
2021/04/24 04:23:24;;;;;;;27.67;4.30;;;2.90;99.90;;;;;;4974765;28;20030;-83
2021/04/24 04:25:51;;;;;;;32.53;6.18;;;2.90;99.90;;;;;;4993715;28;20566;-84
2021/04/24 04:28:17;;;;;;;36.38;5.45;;;2.90;99.90;;;;;;4990582;28;20023;-83
2021/04/24 04:30:42;;;;;;;33.25;5.55;;;3.00;99.90;;;;;;4973760;28;20552;-83
2021/04/24 04:33:09;;;;;;;36.38;6.70;;;3.00;99.90;;;;;;4974607;28;20030;-83
2021/04/24 04:35:36;;;;;;;28.08;4.43;;;3.00;99.90;;;;;;4988135;28;20034;-83
2021/04/24 04:38:03;;;;;;;34.75;4.25;;;3.00;99.90;;;;;;4993893;28;20101;-83
2021/04/24 04:40:29;;;;;;;19.45;4.22;;;3.10;99.90;;;;;;5009106;28;20490;-83
2021/04/24 04:42:55;;;;;;;25.58;4.93;;;3.10;99.90;;;;;;4993623;28;20522;-83
2021/04/24 04:45:21;;;;;;;20.50;4.10;;;3.10;99.90;;;;;;4993332;28;20045;-83
2021/04/24 04:47:47;;;;;;;25.92;4.63;;;3.10;99.90;;;;;;4992689;28;20566;-84
2021/04/24 04:50:16;;;;;;;22.73;4.82;;;3.20;99.90;;;;;;4992576;28;20054;-83
2021/04/24 04:52:43;;;;;;;20.42;3.65;;;3.10;99.90;;;;;;4993686;28;20022;-83
2021/04/24 04:55:09;;;;;;;18.08;3.60;;;3.10;99.90;;;;;;4977286;28;20027;-83
2021/04/24 04:57:35;;;;;;;15.82;3.63;;;3.10;99.90;;;;;;4992308;28;20046;-83
2021/04/24 05:00:01;;;;;;;29.95;4.53;;;3.20;99.90;;;;;;4993056;28;20076;-83
2021/04/24 05:02:26;;;;;;;28.05;9.65;;;3.20;99.90;;;;;;4993622;28;20101;-83
2021/04/24 05:04:52;;;;;;;31.50;7.43;;;3.30;99.90;;;;;;5007580;28;20023;-82
2021/04/24 05:07:18;;;;;;;32.30;4.63;;;3.40;99.90;;;;;;4993403;28;20109;-83
2021/04/24 05:09:43;;;;;;;22.45;3.53;;;3.40;99.90;;;;;;4993606;28;20037;-83
2021/04/24 05:12:09;;;;;;;18.75;5.53;;;3.50;99.90;;;;;;4992229;28;20475;-83
2021/04/24 05:14:35;;;;;;;18.05;4.22;;;3.50;99.90;;;;;;4993545;28;20114;-82
2021/04/24 05:17:01;;;;;;;22.52;5.22;;;3.60;99.90;;;;;;4973985;28;20492;-83
2021/04/24 05:19:27;;;;;;;37.38;15.95;;;3.60;99.90;;;;;;4973860;28;20115;-82
2021/04/24 05:21:52;;;;;;;28.67;7.18;;;3.70;99.90;;;;;;4973803;28;20400;-83
2021/04/24 05:24:18;;;;;;;39.22;9.75;;;3.70;99.90;;;;;;4980391;28;20490;-83
2021/04/24 05:26:44;;;;;;;53.35;8.38;;;3.80;99.90;;;;;;4993154;28;20070;-83
2021/04/24 05:29:09;;;;;;;109.45;14.20;;;3.90;99.90;;;;;;4992555;28;20022;-84
2021/04/24 05:31:35;;;;;;;99.68;15.77;;;4.00;99.90;;;;;;4993095;28;20034;-83
2021/04/24 05:34:00;;;;;;;123.97;18.42;;;4.10;99.90;;;;;;5006693;28;20022;-83
2021/04/24 05:36:28;;;;;;;108.60;15.13;;;4.20;99.90;;;;;;4990808;28;20545;-82
2021/04/24 05:38:54;;;;;;;90.88;11.35;;;4.40;99.90;;;;;;5008066;28;20043;-83
2021/04/24 05:41:22;;;;;;;36.55;5.35;;;4.40;99.90;;;;;;4992944;28;20374;-83
2021/04/24 05:43:53;;;;;;;43.05;7.18;;;4.50;99.90;;;;;;4990493;28;20045;-83
2021/04/24 05:46:21;;;;;;;41.92;7.90;;;4.50;99.90;;;;;;4992932;28;20029;-83
2021/04/24 05:48:47;;;;;;;35.47;9.77;;;4.60;99.90;;;;;;4992830;28;20018;-83
2021/04/24 05:51:13;;;;;;;21.92;5.38;;;4.60;99.90;;;;;;4991607;28;20057;-84
2021/04/24 05:53:39;;;;;;;68.40;10.75;;;4.70;99.90;;;;;;4990849;28;20030;-84
2021/04/24 05:56:05;;;;;;;38.85;8.13;;;4.70;99.90;;;;;;4992435;28;20034;-84
2021/04/24 05:58:30;;;;;;;31.83;5.15;;;4.70;99.90;;;;;;4987324;28;20080;-82
2021/04/24 06:00:56;;;;;;;22.48;4.25;;;4.80;99.90;;;;;;4975469;28;20113;-83
2021/04/24 06:03:22;;;;;;;17.67;4.25;;;4.80;99.90;;;;;;4991961;28;20027;-84
2021/04/24 06:05:47;;;;;;;18.67;4.35;;;5.00;99.90;;;;;;4989965;28;20038;-83
2021/04/24 06:08:13;;;;;;;9.25;2.83;;;5.10;99.90;;;;;;4992212;28;20551;-83
2021/04/24 06:10:39;;;;;;;11.27;3.72;;;5.30;99.90;;;;;;4992314;28;20023;-82
2021/04/24 06:13:05;;;;;;;14.88;2.70;;;5.50;99.90;;;;;;4990386;28;20037;-83
2021/04/24 06:15:31;;;;;;;18.02;2.00;;;5.70;99.90;;;;;;4972314;28;20042;-84
2021/04/24 06:17:56;;;;;;;17.27;3.33;;;5.80;99.90;;;;;;4971556;28;20066;-84
2021/04/24 06:20:22;;;;;;;19.02;2.15;;;6.00;99.90;;;;;;4972726;28;20786;-84
2021/04/24 06:22:47;;;;;;;20.83;3.17;;;6.10;99.90;;;;;;4972799;28;20487;-84
2021/04/24 06:25:16;;;;;;;15.10;2.45;;;6.30;99.90;;;;;;4980073;28;20018;-84
2021/04/24 06:27:43;;;;;;;11.20;2.40;;;6.40;99.90;;;;;;4972240;28;20023;-84
2021/04/24 06:30:11;;;;;;;11.60;2.65;;;6.50;99.90;;;;;;4990632;28;20019;-83
2021/04/24 06:32:37;;;;;;;19.05;3.15;;;6.70;99.90;;;;;;4992068;28;20049;-83
2021/04/24 06:35:04;;;;;;;12.13;2.90;;;6.70;99.90;;;;;;4990199;28;20145;-84
2021/04/24 06:37:29;;;;;;;17.33;2.85;;;6.70;99.90;;;;;;4991405;28;20030;-85
2021/04/24 06:39:55;;;;;;;10.52;2.40;;;6.70;99.90;;;;;;4990713;28;20049;-83
2021/04/24 06:42:21;;;;;;;10.80;2.45;;;6.80;99.90;;;;;;4992003;28;20026;-83
2021/04/24 06:44:46;;;;;;;12.55;3.58;;;6.80;99.90;;;;;;4991014;28;20042;-84
2021/04/24 06:47:12;;;;;;;16.65;2.38;;;7.00;99.90;;;;;;4991814;28;20023;-84
2021/04/24 06:49:38;;;;;;;15.18;2.08;;;7.10;99.90;;;;;;4991993;28;20565;-84
2021/04/24 06:52:05;;;;;;;10.30;2.88;;;7.30;99.90;;;;;;4990659;28;20054;-83
2021/04/24 06:54:31;;;;;;;10.43;2.15;;;7.20;99.90;;;;;;4989496;28;20022;-85
2021/04/24 06:56:57;;;;;;;13.13;2.28;;;7.40;99.90;;;;;;5007100;28;20026;-84
2021/04/24 06:59:22;;;;;;;13.85;2.30;;;7.60;99.90;;;;;;4987214;28;20041;-85
2021/04/24 07:01:48;;;;;;;13.15;2.17;;;7.70;99.90;;;;;;4987259;28;20081;-84
2021/04/24 07:04:13;;;;;;;13.82;2.42;;;7.80;99.90;;;;;;4976993;28;20031;-84
2021/04/24 07:06:39;;;;;;;6.60;1.83;;;7.60;99.90;;;;;;4986091;28;20482;-84
2021/04/24 07:09:05;;;;;;;10.95;1.80;;;7.80;99.90;;;;;;4971192;28;20584;-84
2021/04/24 07:11:31;;;;;;;11.35;2.13;;;7.90;99.90;;;;;;4972411;28;20097;-84
2021/04/24 07:13:56;;;;;;;10.18;1.92;;;7.90;99.90;;;;;;4994754;28;20125;-84
2021/04/24 07:16:22;;;;;;;14.02;2.17;;;8.10;99.90;;;;;;4991594;28;20070;-83
2021/04/24 07:18:47;;;;;;;13.13;1.50;;;8.10;99.90;;;;;;4991785;28;20035;-85
2021/04/24 07:21:13;;;;;;;6.97;1.67;;;8.20;99.90;;;;;;4990541;28;20521;-85
2021/04/24 07:23:40;;;;;;;5.95;2.35;;;8.50;99.90;;;;;;4990860;28;20034;-84
2021/04/24 07:26:10;;;;;;;7.07;1.60;;;8.50;99.90;;;;;;4990159;28;20483;-84
2021/04/24 07:28:36;;;;;;;9.55;1.70;;;8.70;99.90;;;;;;4985719;28;20498;-85
2021/04/24 07:31:01;;;;;;;7.50;1.67;;;8.60;99.90;;;;;;4972142;28;20047;-84
2021/04/24 07:33:28;;;;;;;8.85;2.58;;;8.80;99.90;;;;;;4970885;28;20081;-84
2021/04/24 07:35:54;;;;;;;5.35;1.55;;;9.00;99.90;;;;;;4988954;28;20078;-85
2021/04/24 07:38:21;;;;;;;10.90;1.98;;;8.90;99.90;;;;;;4989724;28;20022;-84
2021/04/24 07:40:48;;;;;;;10.73;1.85;;;9.00;99.90;;;;;;4995108;28;20030;-85
2021/04/24 07:43:13;;;;;;;9.23;1.45;;;9.30;99.90;;;;;;4994901;28;20530;-85
2021/04/24 07:45:40;;;;;;;6.70;1.80;;;9.40;99.90;;;;;;4994272;28;20112;-85
2021/04/24 07:48:06;;;;;;;6.32;2.00;;;9.30;99.90;;;;;;4994828;28;20069;-85
2021/04/24 07:50:33;;;;;;;6.90;1.30;;;9.50;99.90;;;;;;4979284;28;20031;-85
2021/04/24 07:52:59;;;;;;;6.28;1.60;;;9.60;99.90;;;;;;4975403;28;20042;-84
2021/04/24 07:55:25;;;;;;;5.85;1.60;;;9.70;99.90;;;;;;4973577;28;20519;-85
2021/04/24 07:57:51;;;;;;;4.28;1.35;;;9.60;99.90;;;;;;4974244;28;20517;-85
2021/04/24 08:00:17;;;;;;;2.95;1.08;;;9.40;99.90;;;;;;5009039;28;20062;-85
2021/04/24 08:02:43;;;;;;;10.93;1.52;;;9.40;99.90;;;;;;4993612;28;20483;-85
2021/04/24 08:05:09;;;;;;;6.10;1.77;;;9.50;99.90;;;;;;4992694;28;20035;-86
2021/04/24 08:07:34;;;;;;;8.10;1.15;;;9.60;99.90;;;;;;4990087;28;20034;-84
2021/04/24 08:10:00;;;;;;;6.07;1.50;;;9.60;99.90;;;;;;4979701;28;20114;-85
2021/04/24 08:12:26;;;;;;;6.50;1.55;;;9.80;99.90;;;;;;4988399;28;20090;-83
2021/04/24 08:14:53;;;;;;;11.85;2.78;;;10.10;99.90;;;;;;4988787;28;20035;-86
2021/04/24 08:17:19;;;;;;;8.95;1.70;;;10.00;99.90;;;;;;4975172;28;20065;-84
2021/04/24 08:19:44;;;;;;;3.60;1.00;;;10.10;99.90;;;;;;4986435;28;20061;-83
2021/04/24 08:22:10;;;;;;;3.60;1.38;;;9.90;99.90;;;;;;4990044;28;20034;-85
2021/04/24 08:24:36;;;;;;;12.75;1.42;;;9.70;99.90;;;;;;4977508;28;20500;-85
2021/04/24 08:27:02;;;;;;;6.93;1.45;;;9.70;99.90;;;;;;4994141;28;20026;-86
2021/04/24 08:29:27;;;;;;;12.73;1.83;;;9.80;99.90;;;;;;4994107;28;20085;-86
2021/04/24 08:31:53;;;;;;;8.05;1.77;;;10.30;99.90;;;;;;4993066;28;20031;-85
2021/04/24 08:34:21;;;;;;;9.73;1.60;;;10.50;99.90;;;;;;4993405;28;20046;-83
2021/04/24 08:36:48;;;;;;;7.97;1.55;;;10.60;99.90;;;;;;4994193;28;20097;-85
2021/04/24 08:39:13;;;;;;;3.17;1.50;;;10.40;99.90;;;;;;4993871;28;20022;-84
2021/04/24 08:41:39;;;;;;;8.35;2.22;;;10.60;99.90;;;;;;5000267;28;20027;-85
2021/04/24 08:44:05;;;;;;;8.45;2.25;;;10.50;99.90;;;;;;4978527;28;20372;-84
2021/04/24 08:46:31;;;;;;;5.43;1.30;;;10.40;99.90;;;;;;4994204;28;20061;-85
2021/04/24 08:48:57;;;;;;;5.68;1.67;;;10.50;99.90;;;;;;4992514;28;20042;-85
2021/04/24 08:51:25;;;;;;;7.57;1.45;;;10.60;99.90;;;;;;4993539;28;20029;-85
2021/04/24 08:53:52;;;;;;;8.57;1.73;;;10.50;99.90;;;;;;4993183;28;20030;-85
2021/04/24 08:56:18;;;;;;;8.50;1.45;;;10.60;99.90;;;;;;4992706;28;20126;-86
2021/04/24 08:58:45;;;;;;;8.43;2.50;;;10.80;99.90;;;;;;4992441;28;20054;-86
2021/04/24 09:01:11;;;;;;;3.97;1.02;;;11.10;99.90;;;;;;4992360;28;20022;-85
2021/04/24 09:03:38;;;;;;;5.13;1.48;;;11.20;99.90;;;;;;4993374;28;20117;-86
2021/04/24 09:06:03;;;;;;;17.08;1.75;;;11.40;99.90;;;;;;4992105;28;20030;-83
2021/04/24 09:08:31;;;;;;;11.70;1.70;;;11.30;97.40;;;;;;4992448;28;20502;-85
2021/04/24 09:11:01;;;;;;;4.30;1.92;;;11.30;99.90;;;;;;4989880;28;20045;-84
2021/04/24 09:13:28;;;;;;;10.70;1.80;;;11.40;96.50;;;;;;4988916;28;20479;-86
2021/04/24 09:15:54;;;;;;;2.25;1.38;;;11.70;95.10;;;;;;4972159;28;20023;-85
2021/04/24 09:18:22;;;;;;;1.85;1.25;;;12.00;93.40;;;;;;4988958;28;20454;-85
2021/04/24 09:20:51;;;;;;;3.55;1.33;;;12.30;94.10;;;;;;4974016;28;20379;-86
2021/04/24 09:23:23;;;;;;;7.05;1.65;;;12.30;84.30;;;;;;4974922;28;20034;-85
2021/04/24 09:26:09;;;;;;;8.25;1.73;;;12.10;82.00;;;;;;4984414;28;20120;-85
2021/04/24 09:28:39;;;;;;;5.07;1.42;;;12.00;90.00;;;;;;4972447;28;20091;-85
2021/04/24 09:31:22;;;;;;;7.70;1.80;;;12.00;83.00;;;;;;4972697;28;20050;-86
2021/04/24 09:33:51;;;;;;;5.32;1.77;;;12.40;86.00;;;;;;4972178;28;20026;-86
2021/04/24 09:36:17;;;;;;;6.40;1.60;;;12.80;86.80;;;;;;4973483;28;20115;-86
2021/04/24 09:38:54;;;;;;;5.88;1.67;;;12.50;85.10;;;;;;4972648;28;20026;-85
2021/04/24 09:41:21;;;;;;;2.80;1.42;;;12.10;82.20;;;;;;4991339;28;20166;-86
2021/04/24 09:43:55;;;;;;;4.47;1.55;;;12.20;93.90;;;;;;4983283;28;20034;-86
2021/04/24 09:46:23;;;;;;;14.70;1.52;;;12.30;79.70;;;;;;4993196;28;20022;-86
2021/04/24 09:48:49;;;;;;;5.72;2.17;;;12.40;83.00;;;;;;4992861;28;20042;-85
2021/04/24 09:51:16;;;;;;;13.95;2.28;;;12.40;88.90;;;;;;4991631;28;20045;-85
2021/04/24 09:53:56;;;;;;;5.28;1.90;;;12.20;82.90;;;;;;4987453;28;20030;-83
2021/04/24 09:56:24;;;;;;;5.97;1.75;;;12.50;89.10;;;;;;4973689;28;20033;-85
2021/04/24 09:58:50;;;;;;;6.60;1.90;;;12.50;85.80;;;;;;4988255;28;20033;-84
2021/04/24 10:01:24;;;;;;;9.02;1.60;;;12.90;86.60;;;;;;4972283;28;20098;-85
2021/04/24 10:03:52;;;;;;;12.27;1.95;;;12.80;82.90;;;;;;5020199;22;20024;-84
2021/04/24 10:06:35;;;;;;;9.82;2.28;;;12.90;95.50;;;;;;5047553;28;20033;-87
2021/04/24 10:09:16;;;;;;;8.93;2.22;;;13.10;90.10;;;;;;5047426;28;20053;-87
2021/04/24 10:11:45;;;;;;;8.77;3.10;;;13.10;92.30;;;;;;5047130;28;20052;-86
2021/04/24 10:14:12;;;;;;;14.70;1.83;;;13.30;87.50;;;;;;5012707;28;20494;-86
2021/04/24 10:16:42;;;;;;;4.70;2.05;;;13.20;86.50;;;;;;4991205;28;20495;-86
2021/04/24 10:19:13;;;;;;;6.03;2.33;;;13.40;84.20;;;;;;4992580;28;20030;-86
2021/04/24 10:21:41;;;;;;;10.18;2.38;;;13.30;78.90;;;;;;4998113;28;20026;-85
2021/04/24 10:24:07;;;;;;;7.00;2.00;;;13.60;89.60;;;;;;5011540;28;20018;-88
2021/04/24 10:26:35;;;;;;;6.07;2.10;;;13.40;83.70;;;;;;5010487;28;20026;-87
2021/04/24 10:29:01;;;;;;;2.53;1.77;;;13.20;84.70;;;;;;5010763;28;20022;-87
2021/04/24 10:31:31;;;;;;;6.80;2.47;;;13.40;82.50;;;;;;5010518;28;20024;-88
2021/04/24 10:33:59;;;;;;;9.20;2.08;;;13.20;80.60;;;;;;5010208;28;20018;-89
2021/04/24 10:36:25;;;;;;;20.25;2.70;;;12.50;81.70;;;;;;5011807;28;20601;-86
2021/04/24 10:38:52;;;;;;;7.30;2.40;;;12.20;90.40;;;;;;5010802;28;20029;-87
2021/04/24 10:41:27;;;;;;;7.30;1.92;;;12.40;87.70;;;;;;5002812;28;20030;-87
2021/04/24 10:44:01;;;;;;;6.20;2.03;;;13.00;88.00;;;;;;5002093;28;20041;-84
2021/04/24 10:46:31;;;;;;;;;;;13.00;90.50;;;;;;5012379;28;20026;-84
2021/04/24 10:49:20;;;;;;;8.65;2.25;;;13.50;89.50;;;;;;5010647;28;19913;-84
2021/04/24 10:51:57;;;;;;;10.82;2.42;;;13.30;83.60;;;;;;5011593;28;20096;-84
2021/04/24 10:54:28;;;;;;;3.58;2.10;;;12.90;84.90;;;;;;5011279;28;20029;-85
2021/04/24 10:56:55;;;;;;;12.52;1.92;;;12.80;88.00;;;;;;5011519;28;20030;-88
2021/04/24 10:59:20;;;;;;;12.07;2.35;;;13.40;92.40;;;;;;5010208;28;20068;-87
2021/04/24 11:02:12;;;;;;;2.70;1.67;;;13.50;84.50;;;;;;5010609;28;20490;-87
2021/04/24 11:04:46;;;;;;;6.57;2.45;;;13.30;80.40;;;;;;5009840;28;20109;-89
2021/04/24 11:07:27;;;;;;;7.65;2.47;;;13.10;88.20;;;;;;5011833;28;20030;-88
2021/04/24 11:10:10;;;;;;;5.22;2.28;;;13.60;91.20;;;;;;5011061;28;20048;-87
2021/04/24 11:12:44;;;;;;;5.93;1.75;;;14.20;92.00;;;;;;5010814;28;20029;-88
2021/04/24 11:15:11;;;;;;;7.20;2.50;;;14.80;90.00;;;;;;5013578;28;20029;-87
2021/04/24 11:17:38;;;;;;;4.43;2.28;;;15.30;80.20;;;;;;5015390;28;20033;-87
2021/04/24 11:20:08;;;;;;;3.00;1.80;;;15.40;76.00;;;;;;5015137;28;20383;-87
2021/04/24 11:22:41;;;;;;;4.30;1.75;;;14.60;70.40;;;;;;5008102;28;20499;-86
2021/04/24 11:25:16;;;;;;;3.20;1.90;;;13.50;69.30;;;;;;5013994;28;20029;-87
2021/04/24 11:28:03;;;;;;;5.32;2.35;;;13.50;74.60;;;;;;4998093;28;20057;-86
2021/04/24 11:30:51;;;;;;;6.45;1.90;;;13.80;72.60;;;;;;5008872;28;20060;-85
2021/04/24 11:33:37;;;;;;;6.57;2.25;;;14.40;76.10;;;;;;5011382;28;20029;-86
2021/04/24 11:36:26;;;;;;;4.35;2.17;;;15.00;73.50;;;;;;4999622;28;20038;-88
2021/04/24 11:38:57;;;;;;;6.15;1.73;;;15.00;74.00;;;;;;5014733;28;20412;-86
2021/04/24 11:41:28;;;;;;;21.35;2.85;;;15.00;71.60;;;;;;5014365;28;20112;-85
2021/04/24 11:43:54;;;;;;;3.92;2.38;;;15.10;67.80;;;;;;5013386;28;20073;-87
2021/04/24 11:46:36;;;;;;;14.13;3.55;;;15.00;67.50;;;;;;5014747;28;20030;-86
2021/04/24 11:49:12;;;;;;;7.57;2.10;;;15.70;65.10;;;;;;5013486;28;20026;-87
2021/04/24 11:51:39;;;;;;;6.07;2.10;;;16.00;68.80;;;;;;5014706;28;20124;-86
2021/04/24 11:54:07;;;;;;;7.45;2.30;;;14.90;61.10;;;;;;5013399;28;20030;-85
2021/04/24 11:56:34;;;;;;;4.30;2.58;;;13.60;60.50;;;;;;5013908;28;20036;-87
2021/04/24 11:59:00;;;;;;;10.68;2.70;;;13.70;66.30;;;;;;5014575;28;20026;-87
2021/04/24 12:01:27;;;;;;;22.05;2.28;;;14.40;67.00;;;;;;5014596;28;20018;-85
2021/04/24 12:03:53;;;;;;;4.88;2.08;;;15.40;65.00;;;;;;5012324;28;20072;-87
2021/04/24 12:07:10;;;;;;;5.13;2.03;;;16.00;59.70;;;;;;5014536;28;20026;-87
2021/04/24 12:09:46;;;;;;;8.35;2.20;;;16.40;52.70;;;;;;4996490;28;20034;-87
2021/04/24 12:12:16;;;;;;;6.68;2.45;;;15.90;54.50;;;;;;5012779;28;20513;-86
2021/04/24 12:14:42;;;;;;;2.92;1.90;;;15.40;64.20;;;;;;5013776;28;20026;-86
2021/04/24 12:17:10;;;;;;;5.85;2.42;;;15.30;59.00;;;;;;5012947;28;20058;-86
2021/04/24 12:19:38;;;;;;;4.15;2.22;;;14.50;60.80;;;;;;5014175;28;20049;-86
2021/04/24 12:22:19;;;;;;;9.93;2.55;;;13.70;61.20;;;;;;5012518;28;20034;-84
2021/04/24 12:24:59;;;;;;;7.07;2.42;;;14.20;69.70;;;;;;5012561;28;20108;-84
2021/04/24 12:27:30;;;;;;;14.75;2.58;;;14.40;63.00;;;;;;5012318;28;20033;-84
2021/04/24 12:29:57;;;;;;;4.88;2.10;;;14.30;60.10;;;;;;5012765;28;20029;-85
2021/04/24 12:32:25;;;;;;;10.18;3.15;;;15.40;61.00;;;;;;5012138;28;20508;-84
2021/04/24 12:34:51;;;;;;;4.72;1.90;;;16.20;53.70;;;;;;5013186;28;20022;-84
2021/04/24 12:37:20;;;;;;;8.65;2.22;;;16.80;58.10;;;;;;5012442;28;20088;-82
2021/04/24 12:39:45;;;;;;;9.35;2.53;;;14.90;68.50;;;;;;5013724;28;20026;-85
2021/04/24 12:42:12;;;;;;;11.00;2.55;;;13.90;78.50;;;;;;5012638;28;20033;-83
2021/04/24 12:44:39;;;;;;;5.85;1.75;;;14.20;91.30;;;;;;5012987;28;20029;-83
2021/04/24 12:47:05;;;;;;;3.42;2.08;;;13.70;90.50;;;;;;5012243;28;20446;-84
2021/04/24 12:49:31;;;;;;;9.82;1.98;;;13.20;90.10;;;;;;5013590;28;20386;-83
2021/04/24 12:52:03;;;;;;;9.82;2.03;;;13.50;91.00;;;;;;5012990;28;20040;-84